createdAt,value
2022-10-02T00:00:49.800Z,0.00
2022-10-02T00:01:50.109Z,0.00
2022-10-02T00:02:49.745Z,0.00
2022-10-02T00:03:49.770Z,0.00
2022-10-02T00:04:49.745Z,0.00
2022-10-02T00:05:49.732Z,0.00
2022-10-02T00:06:49.727Z,0.00
2022-10-02T00:07:49.691Z,0.00
2022-10-02T00:08:49.685Z,0.00
2022-10-02T00:09:49.682Z,0.00
2022-10-02T00:10:49.677Z,0.00
2022-10-02T00:11:49.668Z,0.00
2022-10-02T00:12:49.639Z,0.00
2022-10-02T00:13:49.630Z,0.00
2022-10-02T00:14:49.629Z,0.00
2022-10-02T00:15:49.622Z,0.00
2022-10-02T00:16:49.732Z,0.00
2022-10-02T00:17:49.585Z,0.00
2022-10-02T00:18:49.578Z,0.00
2022-10-02T00:19:49.559Z,0.00
2022-10-02T00:20:49.560Z,0.00
2022-10-02T00:21:49.586Z,0.00
2022-10-02T00:22:49.529Z,0.00
2022-10-02T00:23:49.523Z,0.00
2022-10-02T00:24:49.528Z,0.00
2022-10-02T00:25:49.490Z,0.00
2022-10-02T00:26:49.510Z,0.00
2022-10-02T00:27:49.477Z,0.00
2022-10-02T00:28:49.460Z,0.00
2022-10-02T00:29:49.464Z,0.00
2022-10-02T00:30:49.441Z,0.00
2022-10-02T00:31:50.452Z,0.00
2022-10-02T00:32:49.422Z,0.00
2022-10-02T00:33:49.405Z,0.00
2022-10-02T00:34:49.431Z,0.00
2022-10-02T00:35:49.384Z,0.00
2022-10-02T00:36:49.393Z,0.00
2022-10-02T00:37:49.357Z,0.00
2022-10-02T00:38:49.350Z,0.00
2022-10-02T00:39:49.337Z,0.00
2022-10-02T00:40:49.366Z,0.00
2022-10-02T00:41:49.330Z,0.00
2022-10-02T00:42:49.317Z,0.00
2022-10-02T00:43:49.313Z,0.00
2022-10-02T00:44:49.279Z,0.00
2022-10-02T00:45:49.308Z,0.00
2022-10-02T00:46:49.278Z,0.00
2022-10-02T00:47:49.259Z,0.00
2022-10-02T00:48:49.234Z,0.00
2022-10-02T00:49:49.225Z,0.00
2022-10-02T00:50:49.224Z,0.00
2022-10-02T00:51:49.237Z,0.00
2022-10-02T00:52:49.191Z,0.00
2022-10-02T00:53:49.188Z,0.00
2022-10-02T00:54:49.185Z,0.00
2022-10-02T00:55:49.164Z,0.00
2022-10-02T00:56:49.246Z,0.00
2022-10-02T00:57:49.141Z,0.00
2022-10-02T00:58:49.131Z,0.00
2022-10-02T00:59:49.108Z,0.00
2022-10-02T01:00:49.116Z,0.00
2022-10-02T01:01:49.165Z,0.00
2022-10-02T01:02:49.094Z,0.00
2022-10-02T01:03:49.068Z,0.00
2022-10-02T01:04:49.054Z,0.00
2022-10-02T01:05:49.035Z,0.00
2022-10-02T01:06:49.049Z,0.00
2022-10-02T01:07:49.025Z,0.00
2022-10-02T01:08:49.048Z,0.00
2022-10-02T01:09:48.995Z,0.00
2022-10-02T01:10:48.987Z,0.00
2022-10-02T01:11:49.001Z,0.00
2022-10-02T01:12:48.964Z,0.00
2022-10-02T01:13:48.959Z,0.00
2022-10-02T01:14:48.948Z,0.00
2022-10-02T01:15:48.949Z,0.00
2022-10-02T01:16:49.012Z,0.00
2022-10-02T01:17:48.911Z,0.00
2022-10-02T01:18:48.927Z,0.00
2022-10-02T01:19:48.889Z,0.00
2022-10-02T01:20:48.875Z,0.00
2022-10-02T01:21:48.892Z,0.00
2022-10-02T01:22:48.869Z,0.00
2022-10-02T01:23:48.850Z,0.00
2022-10-02T01:24:48.839Z,0.00
2022-10-02T01:25:48.864Z,0.00
2022-10-02T01:26:48.821Z,0.00
2022-10-02T01:27:48.872Z,0.00
2022-10-02T01:28:48.796Z,0.00
2022-10-02T01:29:48.781Z,0.00
2022-10-02T01:30:48.763Z,0.00
2022-10-02T01:31:48.805Z,0.00
2022-10-02T01:32:48.783Z,0.00
2022-10-02T01:33:48.739Z,0.00
2022-10-02T01:34:48.734Z,0.00
2022-10-02T01:35:48.713Z,0.00
2022-10-02T01:36:48.692Z,0.00
2022-10-02T01:37:48.717Z,0.00
2022-10-02T01:38:48.682Z,0.00
2022-10-02T01:39:48.678Z,0.00
2022-10-02T01:40:48.650Z,0.00
2022-10-02T01:41:48.658Z,0.00
2022-10-02T01:42:48.653Z,0.00
2022-10-02T01:43:48.628Z,0.00
2022-10-02T01:44:48.614Z,0.00
2022-10-02T01:45:48.647Z,0.00
2022-10-02T01:46:48.586Z,0.00
2022-10-02T01:47:48.602Z,0.00
2022-10-02T01:48:48.660Z,0.00
2022-10-02T01:49:48.560Z,0.00
2022-10-02T01:50:48.567Z,0.00
2022-10-02T01:51:48.543Z,0.00
2022-10-02T01:52:48.559Z,0.00
2022-10-02T01:53:48.514Z,0.00
2022-10-02T01:54:48.535Z,0.00
2022-10-02T01:55:48.493Z,0.00
2022-10-02T01:56:48.482Z,0.00
2022-10-02T01:57:48.496Z,0.00
2022-10-02T01:58:48.468Z,0.00
2022-10-02T01:59:48.442Z,0.00
2022-10-02T02:00:48.514Z,0.00
2022-10-02T02:01:48.494Z,0.00
2022-10-02T02:02:48.492Z,0.00
2022-10-02T02:03:48.428Z,0.00
2022-10-02T02:04:48.398Z,0.00
2022-10-02T02:05:48.419Z,0.00
2022-10-02T02:06:48.371Z,0.00
2022-10-02T02:07:48.409Z,0.00
2022-10-02T02:08:48.348Z,0.00
2022-10-02T02:09:48.343Z,0.00
2022-10-02T02:10:48.325Z,0.00
2022-10-02T02:11:48.324Z,0.00
2022-10-02T02:12:48.316Z,0.00
2022-10-02T02:13:48.292Z,0.00
2022-10-02T02:14:48.277Z,0.00
2022-10-02T02:15:48.312Z,0.00
2022-10-02T02:16:48.364Z,0.00
2022-10-02T02:17:48.276Z,0.00
2022-10-02T02:18:48.231Z,0.00
2022-10-02T02:19:48.231Z,0.00
2022-10-02T02:20:48.214Z,0.00
2022-10-02T02:21:48.209Z,0.00
2022-10-02T02:22:48.211Z,0.00
2022-10-02T02:23:48.192Z,0.00
2022-10-02T02:24:48.175Z,0.00
2022-10-02T02:25:48.187Z,0.00
2022-10-02T02:26:48.149Z,0.00
2022-10-02T02:27:48.248Z,0.00
2022-10-02T02:28:48.133Z,0.00
2022-10-02T02:29:48.129Z,0.00
2022-10-02T02:30:48.110Z,0.00
2022-10-02T02:31:48.155Z,0.00
2022-10-02T02:32:48.099Z,0.00
2022-10-02T02:33:48.099Z,0.00
2022-10-02T02:34:48.098Z,0.00
2022-10-02T02:35:48.071Z,0.00
2022-10-02T02:36:48.050Z,0.00
2022-10-02T02:37:48.059Z,0.00
2022-10-02T02:38:48.019Z,0.00
2022-10-02T02:39:48.055Z,0.00
2022-10-02T02:40:48.004Z,0.00
2022-10-02T02:41:47.995Z,0.00
2022-10-02T02:42:47.992Z,0.00
2022-10-02T02:43:47.974Z,0.00
2022-10-02T02:44:47.963Z,0.00
2022-10-02T02:45:47.989Z,0.00
2022-10-02T02:46:47.936Z,0.00
2022-10-02T02:47:47.985Z,0.00
2022-10-02T02:48:47.941Z,0.00
2022-10-02T02:49:47.914Z,0.00
2022-10-02T02:50:47.915Z,0.00
2022-10-02T02:51:47.896Z,0.00
2022-10-02T02:52:47.883Z,0.00
2022-10-02T02:53:47.864Z,0.00
2022-10-02T02:54:47.856Z,0.00
2022-10-02T02:55:47.865Z,0.00
2022-10-02T02:56:47.835Z,0.00
2022-10-02T02:57:47.855Z,0.00
2022-10-02T02:58:47.810Z,0.00
2022-10-02T02:59:47.804Z,0.00
2022-10-02T03:00:47.878Z,0.00
2022-10-02T03:01:47.840Z,0.00
2022-10-02T03:02:47.785Z,0.00
2022-10-02T03:03:47.779Z,0.00
2022-10-02T03:04:47.751Z,0.00
2022-10-02T03:05:47.728Z,0.00
2022-10-02T03:06:47.777Z,0.00
2022-10-02T03:07:47.723Z,0.00
2022-10-02T03:08:47.695Z,0.00
2022-10-02T03:09:47.705Z,0.00
2022-10-02T03:10:47.684Z,0.00
2022-10-02T03:11:47.659Z,0.00
2022-10-02T03:12:47.668Z,0.00
2022-10-02T03:13:47.649Z,0.00
2022-10-02T03:14:47.648Z,0.00
2022-10-02T03:15:47.680Z,0.00
2022-10-02T03:16:47.618Z,0.00
2022-10-02T03:17:47.619Z,0.00
2022-10-02T03:18:47.593Z,0.00
2022-10-02T03:19:47.579Z,0.00
2022-10-02T03:20:47.567Z,0.00
2022-10-02T03:21:47.556Z,0.00
2022-10-02T03:22:47.563Z,0.00
2022-10-02T03:23:47.541Z,0.00
2022-10-02T03:24:47.580Z,0.00
2022-10-02T03:25:47.515Z,0.00
2022-10-02T03:26:47.501Z,0.00
2022-10-02T03:27:47.580Z,0.00
2022-10-02T03:28:56.397Z,0.00
2022-10-02T03:29:47.488Z,0.00
2022-10-02T03:30:47.453Z,0.00
2022-10-02T03:31:47.487Z,0.00
2022-10-02T03:32:47.497Z,0.00
2022-10-02T03:33:47.439Z,0.00
2022-10-02T03:34:47.423Z,0.00
2022-10-02T03:35:47.430Z,0.00
2022-10-02T03:36:47.391Z,0.00
2022-10-02T03:37:47.417Z,0.00
2022-10-02T03:38:53.424Z,0.00
2022-10-02T03:39:47.368Z,0.00
2022-10-02T03:40:47.359Z,0.00
2022-10-02T03:41:47.340Z,0.00
2022-10-02T03:42:47.338Z,0.00
2022-10-02T03:43:47.314Z,0.00
2022-10-02T03:44:47.343Z,0.00
2022-10-02T03:45:51.290Z,0.00
2022-10-02T03:46:47.330Z,0.00
2022-10-02T03:47:47.284Z,0.00
2022-10-02T03:48:47.257Z,0.00
2022-10-02T03:49:47.248Z,0.00
2022-10-02T03:50:47.243Z,0.00
2022-10-02T03:51:47.251Z,0.00
2022-10-02T03:52:47.226Z,0.00
2022-10-02T03:53:47.228Z,0.00
2022-10-02T03:54:47.189Z,0.00
2022-10-02T03:55:47.184Z,0.00
2022-10-02T03:56:47.172Z,0.00
2022-10-02T03:57:47.189Z,0.00
2022-10-02T03:58:47.165Z,0.00
2022-10-02T03:59:47.146Z,0.00
2022-10-02T04:00:47.131Z,0.00
2022-10-02T04:01:49.308Z,0.00
2022-10-02T04:02:47.127Z,0.00
2022-10-02T04:03:47.178Z,0.00
2022-10-02T04:04:47.089Z,0.00
2022-10-02T04:05:47.077Z,0.00
2022-10-02T04:06:47.097Z,0.00
2022-10-02T04:07:52.407Z,0.00
2022-10-02T04:08:47.043Z,0.00
2022-10-02T04:09:47.039Z,0.00
2022-10-02T04:10:47.012Z,0.00
2022-10-02T04:11:47.014Z,0.00
2022-10-02T04:12:47.020Z,0.00
2022-10-02T04:13:47.006Z,0.00
2022-10-02T04:14:46.977Z,0.00
2022-10-02T04:15:47.022Z,0.00
2022-10-02T04:16:46.961Z,0.00
2022-10-02T04:17:46.941Z,0.00
2022-10-02T04:18:46.956Z,0.00
2022-10-02T04:19:46.916Z,0.00
2022-10-02T04:20:46.921Z,0.00
2022-10-02T04:21:46.899Z,0.00
2022-10-02T04:22:46.887Z,0.00
2022-10-02T04:23:46.900Z,0.00
2022-10-02T04:24:46.866Z,0.00
2022-10-02T04:25:46.861Z,0.00
2022-10-02T04:26:46.845Z,0.00
2022-10-02T04:27:46.916Z,0.00
2022-10-02T04:28:46.838Z,0.00
2022-10-02T04:29:46.821Z,0.00
2022-10-02T04:30:46.802Z,0.00
2022-10-02T04:31:46.809Z,0.00
2022-10-02T04:32:46.778Z,0.00
2022-10-02T04:33:46.781Z,0.00
2022-10-02T04:34:46.766Z,0.00
2022-10-02T04:35:46.753Z,0.00
2022-10-02T04:36:46.739Z,0.00
2022-10-02T04:37:46.748Z,0.00
2022-10-02T04:38:46.723Z,0.00
2022-10-02T04:39:46.918Z,0.00
2022-10-02T04:40:46.687Z,0.00
2022-10-02T04:41:46.680Z,0.00
2022-10-02T04:42:46.668Z,0.00
2022-10-02T04:43:46.679Z,0.00
2022-10-02T04:44:46.680Z,0.00
2022-10-02T04:45:46.722Z,0.00
2022-10-02T04:46:46.687Z,0.00
2022-10-02T04:47:46.617Z,0.00
2022-10-02T04:48:46.621Z,0.00
2022-10-02T04:49:46.639Z,0.00
2022-10-02T04:50:46.575Z,0.00
2022-10-02T04:51:46.571Z,0.00
2022-10-02T04:52:46.555Z,0.00
2022-10-02T04:53:46.564Z,4.00
2022-10-02T04:54:46.569Z,4.00
2022-10-02T04:55:46.524Z,0.00
2022-10-02T04:56:46.513Z,0.00
2022-10-02T04:57:46.506Z,4.00
2022-10-02T04:58:46.555Z,4.00
2022-10-02T04:59:46.482Z,0.00
2022-10-02T05:00:46.511Z,4.00
2022-10-02T05:01:46.574Z,8.00
2022-10-02T05:02:46.446Z,4.00
2022-10-02T05:03:46.479Z,4.00
2022-10-02T05:04:46.426Z,8.00
2022-10-02T05:05:46.420Z,8.00
2022-10-02T05:06:46.405Z,12.00
2022-10-02T05:07:46.400Z,12.00
2022-10-02T05:08:46.411Z,12.00
2022-10-02T05:09:46.384Z,20.00
2022-10-02T05:10:46.354Z,20.00
2022-10-02T05:11:46.400Z,24.00
2022-10-02T05:12:46.344Z,28.00
2022-10-02T05:13:46.340Z,32.00
2022-10-02T05:14:46.324Z,36.00
2022-10-02T05:15:46.408Z,40.00
2022-10-02T05:16:46.300Z,48.00
2022-10-02T05:17:46.280Z,48.00
2022-10-02T05:18:46.306Z,56.00
2022-10-02T05:19:46.265Z,60.00
2022-10-02T05:20:46.259Z,64.00
2022-10-02T05:21:46.249Z,72.00
2022-10-02T05:22:46.234Z,84.00
2022-10-02T05:23:46.269Z,92.00
2022-10-02T05:24:46.225Z,104.00
2022-10-02T05:25:46.193Z,120.00
2022-10-02T05:26:46.188Z,136.00
2022-10-02T05:27:46.260Z,144.00
2022-10-02T05:28:46.205Z,156.00
2022-10-02T05:29:46.167Z,168.00
2022-10-02T05:30:47.446Z,184.00
2022-10-02T05:31:46.196Z,200.00
2022-10-02T05:32:46.127Z,216.00
2022-10-02T05:33:48.496Z,232.00
2022-10-02T05:34:46.095Z,252.00
2022-10-02T05:35:46.101Z,268.00
2022-10-02T05:36:46.114Z,288.00
2022-10-02T05:37:46.075Z,312.00
2022-10-02T05:38:46.073Z,344.00
2022-10-02T05:39:46.055Z,380.00
2022-10-02T05:40:46.052Z,404.00
2022-10-02T05:41:46.023Z,440.00
2022-10-02T05:42:46.075Z,488.00
2022-10-02T05:43:46.019Z,548.00
2022-10-02T05:44:46.022Z,616.00
2022-10-02T05:45:52.583Z,708.00
2022-10-02T05:46:46.003Z,820.00
2022-10-02T05:47:45.992Z,948.00
2022-10-02T05:48:45.982Z,1056.00
2022-10-02T05:49:45.954Z,1008.00
2022-10-02T05:50:45.967Z,872.00
2022-10-02T05:51:45.955Z,760.00
2022-10-02T05:52:45.946Z,380.00
2022-10-02T05:53:45.936Z,428.00
2022-10-02T05:54:45.910Z,376.00
2022-10-02T05:55:45.911Z,328.00
2022-10-02T05:56:45.893Z,404.00
2022-10-02T05:57:45.885Z,368.00
2022-10-02T05:58:45.888Z,328.00
2022-10-02T05:59:45.838Z,244.00
2022-10-02T06:00:45.892Z,160.00
2022-10-02T06:01:45.855Z,116.00
2022-10-02T06:02:45.835Z,88.00
2022-10-02T06:03:45.863Z,72.00
2022-10-02T06:04:45.805Z,64.00
2022-10-02T06:05:45.780Z,68.00
2022-10-02T06:06:45.762Z,64.00
2022-10-02T06:07:45.790Z,84.00
2022-10-02T06:08:45.784Z,96.00
2022-10-02T06:09:45.747Z,100.00
2022-10-02T06:10:45.781Z,104.00
2022-10-02T06:11:45.721Z,112.00
2022-10-02T06:12:45.695Z,112.00
2022-10-02T06:13:45.715Z,116.00
2022-10-02T06:14:49.916Z,124.00
2022-10-02T06:15:45.698Z,132.00
2022-10-02T06:16:45.706Z,156.00
2022-10-02T06:17:45.663Z,192.00
2022-10-02T06:18:45.663Z,252.00
2022-10-02T06:19:45.630Z,340.00
2022-10-02T06:20:45.618Z,468.00
2022-10-02T06:21:45.620Z,572.00
2022-10-02T06:22:45.594Z,576.00
2022-10-02T06:23:45.617Z,524.00
2022-10-02T06:24:45.572Z,480.00
2022-10-02T06:25:45.596Z,448.00
2022-10-02T06:26:45.555Z,432.00
2022-10-02T06:27:45.642Z,428.00
2022-10-02T06:28:45.568Z,428.00
2022-10-02T06:29:45.508Z,444.00
2022-10-02T06:30:45.512Z,464.00
2022-10-02T06:31:45.530Z,480.00
2022-10-02T06:32:45.474Z,504.00
2022-10-02T06:33:45.479Z,532.00
2022-10-02T06:34:47.913Z,584.00
2022-10-02T06:35:45.448Z,692.00
2022-10-02T06:36:45.428Z,832.00
2022-10-02T06:37:45.432Z,924.00
2022-10-02T06:38:45.445Z,956.00
2022-10-02T06:39:45.403Z,924.00
2022-10-02T06:40:45.385Z,896.00
2022-10-02T06:41:45.372Z,900.00
2022-10-02T06:42:45.367Z,916.00
2022-10-02T06:43:45.368Z,912.00
2022-10-02T06:44:45.336Z,908.00
2022-10-02T06:45:45.378Z,928.00
2022-10-02T06:46:49.390Z,960.00
2022-10-02T06:47:45.323Z,996.00
2022-10-02T06:48:45.317Z,1080.00
2022-10-02T06:49:45.288Z,1076.00
2022-10-02T06:50:45.283Z,1088.00
2022-10-02T06:51:45.276Z,1116.00
2022-10-02T06:52:45.256Z,1136.00
2022-10-02T06:53:45.271Z,1172.00
2022-10-02T06:54:45.230Z,1200.00
2022-10-02T06:55:45.251Z,1208.00
2022-10-02T06:56:45.202Z,1240.00
2022-10-02T06:57:45.213Z,1308.00
2022-10-02T06:58:45.237Z,1352.00
2022-10-02T06:59:45.204Z,1480.00
2022-10-02T07:00:45.223Z,1716.00
2022-10-02T07:01:45.182Z,1984.00
2022-10-02T07:02:45.172Z,2128.00
2022-10-02T07:03:45.170Z,2324.00
2022-10-02T07:04:45.145Z,2408.00
2022-10-02T07:05:45.113Z,2420.00
2022-10-02T07:06:45.103Z,2244.00
2022-10-02T07:07:45.103Z,2120.00
2022-10-02T07:08:45.091Z,2104.00
2022-10-02T07:09:45.100Z,2092.00
2022-10-02T07:10:45.066Z,1984.00
2022-10-02T07:11:45.049Z,1852.00
2022-10-02T07:12:45.069Z,1756.00
2022-10-02T07:13:45.052Z,1704.00
2022-10-02T07:14:45.033Z,1724.00
2022-10-02T07:15:45.010Z,1796.00
2022-10-02T07:16:45.025Z,1972.00
2022-10-02T07:17:44.992Z,2096.00
2022-10-02T07:18:44.992Z,2200.00
2022-10-02T07:19:44.977Z,2324.00
2022-10-02T07:20:44.956Z,2480.00
2022-10-02T07:21:44.958Z,2708.00
2022-10-02T07:22:45.924Z,2884.00
2022-10-02T07:23:44.929Z,2984.00
2022-10-02T07:24:44.925Z,3200.00
2022-10-02T07:25:44.895Z,3552.00
2022-10-02T07:26:44.903Z,3816.00
2022-10-02T07:27:44.870Z,4056.00
2022-10-02T07:28:44.909Z,4316.00
2022-10-02T07:29:44.894Z,4560.00
2022-10-02T07:30:44.850Z,4396.00
2022-10-02T07:31:44.854Z,4872.00
2022-10-02T07:32:44.812Z,5524.00
2022-10-02T07:33:44.820Z,5236.00
2022-10-02T07:34:44.821Z,5752.00
2022-10-02T07:35:44.818Z,6312.00
2022-10-02T07:36:44.768Z,6168.00
2022-10-02T07:37:44.761Z,6092.00
2022-10-02T07:38:44.796Z,5532.00
2022-10-02T07:39:44.752Z,3596.00
2022-10-02T07:40:44.755Z,1876.00
2022-10-02T07:41:44.736Z,1140.00
2022-10-02T07:42:44.717Z,688.00
2022-10-02T07:43:44.731Z,396.00
2022-10-02T07:44:44.668Z,436.00
2022-10-02T07:45:44.693Z,412.00
2022-10-02T07:46:44.656Z,468.00
2022-10-02T07:47:44.647Z,572.00
2022-10-02T07:48:44.643Z,736.00
2022-10-02T07:49:44.636Z,924.00
2022-10-02T07:50:44.606Z,1184.00
2022-10-02T07:51:44.629Z,1444.00
2022-10-02T07:52:44.603Z,1628.00
2022-10-02T07:53:44.604Z,1748.00
2022-10-02T07:54:44.585Z,1720.00
2022-10-02T07:55:44.556Z,1708.00
2022-10-02T07:56:44.555Z,1988.00
2022-10-02T07:57:44.540Z,2156.00
2022-10-02T07:58:44.574Z,1944.00
2022-10-02T07:59:44.530Z,1916.00
2022-10-02T08:00:44.538Z,1968.00
2022-10-02T08:01:44.589Z,2188.00
2022-10-02T08:02:44.476Z,2288.00
2022-10-02T08:03:44.516Z,2136.00
2022-10-02T08:04:44.511Z,1852.00
2022-10-02T08:05:44.450Z,1616.00
2022-10-02T08:06:44.460Z,1812.00
2022-10-02T08:07:44.432Z,2016.00
2022-10-02T08:08:44.447Z,2108.00
2022-10-02T08:09:44.406Z,1864.00
2022-10-02T08:10:44.401Z,1668.00
2022-10-02T08:11:49.205Z,1596.00
2022-10-02T08:12:44.396Z,1544.00
2022-10-02T08:13:44.404Z,2452.00
2022-10-02T08:14:44.363Z,1952.00
2022-10-02T08:15:44.345Z,2200.00
2022-10-02T08:16:44.453Z,3256.00
2022-10-02T08:17:44.338Z,3232.00
2022-10-02T08:18:44.363Z,4160.00
2022-10-02T08:19:44.306Z,3128.00
2022-10-02T08:20:44.350Z,3040.00
2022-10-02T08:21:44.272Z,2572.00
2022-10-02T08:22:44.254Z,3124.00
2022-10-02T08:23:44.288Z,3624.00
2022-10-02T08:24:44.243Z,3696.00
2022-10-02T08:25:44.259Z,3648.00
2022-10-02T08:26:44.214Z,5088.00
2022-10-02T08:27:44.205Z,4400.00
2022-10-02T08:28:44.216Z,3352.00
2022-10-02T08:29:44.231Z,3212.00
2022-10-02T08:30:44.194Z,3924.00
2022-10-02T08:31:44.268Z,2536.00
2022-10-02T08:32:44.156Z,3148.00
2022-10-02T08:33:44.141Z,3340.00
2022-10-02T08:34:44.167Z,3616.00
2022-10-02T08:35:44.158Z,3556.00
2022-10-02T08:36:44.121Z,3184.00
2022-10-02T08:37:44.124Z,3032.00
2022-10-02T08:38:44.112Z,3080.00
2022-10-02T08:39:44.127Z,3396.00
2022-10-02T08:40:44.063Z,3668.00
2022-10-02T08:41:44.093Z,4748.00
2022-10-02T08:42:44.047Z,5988.00
2022-10-02T08:43:44.035Z,5928.00
2022-10-02T08:44:44.064Z,6980.00
2022-10-02T08:45:44.041Z,6132.00
2022-10-02T08:46:44.007Z,5800.00
2022-10-02T08:47:44.018Z,5532.00
2022-10-02T08:48:43.980Z,5336.00
2022-10-02T08:49:44.031Z,5348.00
2022-10-02T08:50:43.968Z,4136.00
2022-10-02T08:51:43.967Z,3664.00
2022-10-02T08:52:43.957Z,3080.00
2022-10-02T08:53:43.958Z,2592.00
2022-10-02T08:54:43.966Z,2976.00
2022-10-02T08:55:43.915Z,3840.00
2022-10-02T08:56:43.903Z,4552.00
2022-10-02T08:57:43.886Z,4800.00
2022-10-02T08:58:43.876Z,4100.00
2022-10-02T08:59:43.919Z,3580.00
2022-10-02T09:00:43.942Z,2956.00
2022-10-02T09:01:43.899Z,2104.00
2022-10-02T09:02:43.854Z,1108.00
2022-10-02T09:03:43.826Z,964.00
2022-10-02T09:04:43.880Z,584.00
2022-10-02T09:05:43.822Z,364.00
2022-10-02T09:06:43.800Z,356.00
2022-10-02T09:07:43.772Z,428.00
2022-10-02T09:08:43.768Z,656.00
2022-10-02T09:09:43.775Z,600.00
2022-10-02T09:10:43.739Z,744.00
2022-10-02T09:11:43.717Z,800.00
2022-10-02T09:12:43.714Z,860.00
2022-10-02T09:13:43.729Z,1000.00
2022-10-02T09:14:43.744Z,944.00
2022-10-02T09:15:43.700Z,1144.00
2022-10-02T09:16:43.747Z,1008.00
2022-10-02T09:17:43.688Z,1096.00
2022-10-02T09:18:43.647Z,720.00
2022-10-02T09:19:43.668Z,800.00
2022-10-02T09:20:43.635Z,1416.00
2022-10-02T09:21:43.628Z,1088.00
2022-10-02T09:22:43.641Z,724.00
2022-10-02T09:23:43.612Z,772.00
2022-10-02T09:24:43.605Z,964.00
2022-10-02T09:25:43.573Z,1388.00
2022-10-02T09:26:43.569Z,1972.00
2022-10-02T09:27:43.577Z,2976.00
2022-10-02T09:28:43.536Z,2804.00
2022-10-02T09:29:43.563Z,4108.00
2022-10-02T09:30:43.554Z,4952.00
2022-10-02T09:31:43.556Z,5200.00
2022-10-02T09:32:43.500Z,5336.00
2022-10-02T09:33:43.495Z,5668.00
2022-10-02T09:34:43.575Z,4552.00
2022-10-02T09:35:43.481Z,4764.00
2022-10-02T09:36:43.471Z,3468.00
2022-10-02T09:37:43.458Z,4196.00
2022-10-02T09:38:43.455Z,4900.00
2022-10-02T09:39:43.458Z,6292.00
2022-10-02T09:40:43.425Z,7584.00
2022-10-02T09:41:43.428Z,8676.00
2022-10-02T09:42:43.412Z,8688.00
2022-10-02T09:43:43.389Z,8032.00
2022-10-02T09:44:43.395Z,7376.00
2022-10-02T09:45:43.391Z,5228.00
2022-10-02T09:46:43.349Z,3588.00
2022-10-02T09:47:43.375Z,2816.00
2022-10-02T09:48:43.340Z,2440.00
2022-10-02T09:49:43.332Z,2396.00
2022-10-02T09:50:43.323Z,2692.00
2022-10-02T09:51:43.300Z,3028.00
2022-10-02T09:52:43.287Z,2952.00
2022-10-02T09:53:43.276Z,2616.00
2022-10-02T09:54:43.325Z,2500.00
2022-10-02T09:55:43.254Z,2724.00
2022-10-02T09:56:43.238Z,2956.00
2022-10-02T09:57:43.250Z,3076.00
2022-10-02T09:58:43.238Z,3592.00
2022-10-02T09:59:43.255Z,3200.00
2022-10-02T10:00:43.257Z,2392.00
2022-10-02T10:01:43.197Z,1396.00
2022-10-02T10:02:43.238Z,736.00
2022-10-02T10:03:43.169Z,936.00
2022-10-02T10:05:04.550Z,1428.00
2022-10-02T10:05:43.164Z,1552.00
2022-10-02T10:06:43.138Z,1316.00
2022-10-02T10:07:43.132Z,1456.00
2022-10-02T10:08:43.108Z,1924.00
2022-10-02T10:09:43.127Z,2004.00
2022-10-02T10:10:43.139Z,1812.00
2022-10-02T10:11:43.076Z,1552.00
2022-10-02T10:12:43.055Z,1312.00
2022-10-02T10:13:43.048Z,1188.00
2022-10-02T10:14:43.039Z,984.00
2022-10-02T10:15:43.023Z,656.00
2022-10-02T10:16:43.080Z,528.00
2022-10-02T10:17:42.999Z,484.00
2022-10-02T10:18:42.991Z,648.00
2022-10-02T10:19:43.045Z,1156.00
2022-10-02T10:20:42.987Z,1484.00
2022-10-02T10:21:42.983Z,1496.00
2022-10-02T10:22:42.951Z,1744.00
2022-10-02T10:23:42.939Z,2028.00
2022-10-02T10:24:42.969Z,2236.00
2022-10-02T10:25:42.923Z,3932.00
2022-10-02T10:26:42.909Z,4176.00
2022-10-02T10:27:42.879Z,4332.00
2022-10-02T10:28:42.905Z,3764.00
2022-10-02T10:29:42.897Z,3120.00
2022-10-02T10:30:42.856Z,2536.00
2022-10-02T10:31:42.889Z,2800.00
2022-10-02T10:32:42.847Z,3108.00
2022-10-02T10:33:42.833Z,3128.00
2022-10-02T10:34:42.824Z,3344.00
2022-10-02T10:35:42.847Z,3292.00
2022-10-02T10:36:46.598Z,3260.00
2022-10-02T10:37:42.775Z,3220.00
2022-10-02T10:38:42.753Z,3180.00
2022-10-02T10:39:42.774Z,3120.00
2022-10-02T10:40:42.736Z,3136.00
2022-10-02T10:41:42.728Z,3208.00
2022-10-02T10:43:05.971Z,3280.00
2022-10-02T10:43:42.749Z,3416.00
2022-10-02T10:44:42.718Z,3752.00
2022-10-02T10:45:42.780Z,4152.00
2022-10-02T10:46:42.673Z,4288.00
2022-10-02T10:47:42.781Z,4276.00
2022-10-02T10:48:47.117Z,4548.00
2022-10-02T10:49:42.675Z,4668.00
2022-10-02T10:50:42.643Z,4932.00
2022-10-02T10:51:42.660Z,5088.00
2022-10-02T10:52:42.613Z,4972.00
2022-10-02T10:53:42.607Z,4992.00
2022-10-02T10:54:42.605Z,4772.00
2022-10-02T10:55:42.600Z,5332.00
2022-10-02T10:56:42.569Z,6336.00
2022-10-02T10:57:42.565Z,6832.00
2022-10-02T10:58:42.551Z,7056.00
2022-10-02T10:59:42.579Z,6328.00
2022-10-02T11:00:42.581Z,6076.00
2022-10-02T11:01:42.574Z,5844.00
2022-10-02T11:02:42.550Z,4464.00
2022-10-02T11:03:42.495Z,4976.00
2022-10-02T11:04:42.532Z,4336.00
2022-10-02T11:05:42.480Z,4580.00
2022-10-02T11:06:45.995Z,5624.00
2022-10-02T11:07:42.458Z,6128.00
2022-10-02T11:08:42.477Z,6468.00
2022-10-02T11:09:42.441Z,5556.00
2022-10-02T11:11:03.415Z,4936.00
2022-10-02T11:11:42.473Z,4904.00
2022-10-02T11:12:42.410Z,4184.00
2022-10-02T11:13:42.377Z,3656.00
2022-10-02T11:14:42.413Z,2772.00
2022-10-02T11:15:42.367Z,2080.00
2022-10-02T11:16:42.421Z,1788.00
2022-10-02T11:17:42.373Z,2136.00
2022-10-02T11:18:42.345Z,2044.00
2022-10-02T11:19:42.333Z,2108.00
2022-10-02T11:20:42.346Z,1972.00
2022-10-02T11:21:42.317Z,1716.00
2022-10-02T11:22:42.303Z,1848.00
2022-10-02T11:23:42.306Z,2136.00
2022-10-02T11:24:42.312Z,2620.00
2022-10-02T11:25:44.619Z,3160.00
2022-10-02T11:26:42.265Z,3276.00
2022-10-02T11:27:42.230Z,3696.00
2022-10-02T11:28:42.232Z,3984.00
2022-10-02T11:29:42.243Z,4492.00
2022-10-02T11:30:42.211Z,5168.00
2022-10-02T11:31:42.251Z,5216.00
2022-10-02T11:32:42.188Z,4600.00
2022-10-02T11:33:42.182Z,4396.00
2022-10-02T11:34:42.185Z,4516.00
2022-10-02T11:35:42.203Z,5076.00
2022-10-02T11:36:42.137Z,5124.00
2022-10-02T11:37:42.121Z,5892.00
2022-10-02T11:38:42.122Z,5928.00
2022-10-02T11:39:42.122Z,5848.00
2022-10-02T11:40:42.107Z,6128.00
2022-10-02T11:41:42.092Z,5052.00
2022-10-02T11:42:42.107Z,3928.00
2022-10-02T11:43:44.180Z,4104.00
2022-10-02T11:44:42.085Z,4080.00
2022-10-02T11:45:42.075Z,4816.00
2022-10-02T11:46:42.039Z,5156.00
2022-10-02T11:47:42.019Z,4792.00
2022-10-02T11:48:42.004Z,4436.00
2022-10-02T11:49:42.017Z,3796.00
2022-10-02T11:50:42.001Z,2900.00
2022-10-02T11:51:41.979Z,3120.00
2022-10-02T11:52:47.342Z,4368.00
2022-10-02T11:53:41.961Z,4404.00
2022-10-02T11:54:41.962Z,4256.00
2022-10-02T11:55:41.943Z,4812.00
2022-10-02T11:56:41.920Z,4604.00
2022-10-02T11:57:41.911Z,4148.00
2022-10-02T11:58:41.914Z,4496.00
2022-10-02T11:59:41.913Z,3208.00
2022-10-02T12:00:41.915Z,3140.00
2022-10-02T12:01:41.896Z,2892.00
2022-10-02T12:02:41.975Z,2952.00
2022-10-02T12:03:48.401Z,2880.00
2022-10-02T12:04:41.856Z,3048.00
2022-10-02T12:05:41.817Z,3424.00
2022-10-02T12:06:41.805Z,3864.00
2022-10-02T12:07:41.792Z,3168.00
2022-10-02T12:08:41.789Z,3720.00
2022-10-02T12:09:41.792Z,4668.00
2022-10-02T12:10:41.755Z,4688.00
2022-10-02T12:11:41.743Z,4500.00
2022-10-02T12:12:41.748Z,5508.00
2022-10-02T12:13:41.736Z,6704.00
2022-10-02T12:14:41.739Z,8100.00
2022-10-02T12:15:41.713Z,8924.00
2022-10-02T12:16:41.738Z,9608.00
2022-10-02T12:17:41.690Z,10240.00
2022-10-02T12:18:41.679Z,9864.00
2022-10-02T12:19:41.685Z,10416.00
2022-10-02T12:20:41.662Z,10588.00
2022-10-02T12:21:41.643Z,9680.00
2022-10-02T12:22:41.643Z,9324.00
2022-10-02T12:23:41.627Z,8748.00
2022-10-02T12:24:41.624Z,7932.00
2022-10-02T12:25:41.592Z,7840.00
2022-10-02T12:26:41.604Z,8232.00
2022-10-02T12:27:41.567Z,7836.00
2022-10-02T12:28:41.566Z,7372.00
2022-10-02T12:29:41.726Z,4744.00
2022-10-02T12:30:41.541Z,5008.00
2022-10-02T12:31:41.884Z,6544.00
2022-10-02T12:32:41.522Z,6648.00
2022-10-02T12:33:41.516Z,7552.00
2022-10-02T12:34:41.512Z,7196.00
2022-10-02T12:35:41.493Z,6020.00
2022-10-02T12:36:41.476Z,5296.00
2022-10-02T12:37:41.488Z,5268.00
2022-10-02T12:38:41.446Z,4984.00